createdAt,value
2023-05-14T00:01:54.399Z,11.17
2023-05-14T00:04:21.437Z,11.16
2023-05-14T00:06:48.487Z,11.16
2023-05-14T00:09:15.427Z,11.16
2023-05-14T00:11:42.580Z,11.16
2023-05-14T00:14:09.545Z,11.17
2023-05-14T00:16:36.742Z,11.18
2023-05-14T00:19:03.993Z,11.20
2023-05-14T00:21:32.034Z,11.22
2023-05-14T00:23:59.139Z,11.24
2023-05-14T00:26:26.092Z,11.27
2023-05-14T00:28:53.034Z,11.31
2023-05-14T00:31:20.007Z,11.35
2023-05-14T00:33:46.974Z,11.37
2023-05-14T00:36:13.966Z,11.40
2023-05-14T00:38:40.832Z,11.43
2023-05-14T00:41:08.264Z,11.48
2023-05-14T00:43:35.837Z,11.53
2023-05-14T00:46:02.972Z,11.54
2023-05-14T00:48:30.223Z,11.55
2023-05-14T00:50:57.703Z,11.56
2023-05-14T00:53:26.976Z,11.58
2023-05-14T00:55:54.031Z,11.58
2023-05-14T00:58:20.970Z,11.59
2023-05-14T01:00:48.484Z,11.59
2023-05-14T01:03:16.076Z,11.59
2023-05-14T01:06:18.552Z,11.60
2023-05-14T01:09:07.640Z,11.64
2023-05-14T01:12:00.010Z,11.67
2023-05-14T01:15:09.302Z,11.68
2023-05-14T01:17:41.603Z,11.68
2023-05-14T01:20:09.435Z,11.65
2023-05-14T01:22:36.919Z,11.62
2023-05-14T01:25:05.600Z,11.62
2023-05-14T01:27:36.520Z,11.62
2023-05-14T01:30:06.837Z,11.65
2023-05-14T01:32:33.799Z,11.69
2023-05-14T01:35:00.744Z,11.73
2023-05-14T01:37:28.713Z,11.77
2023-05-14T01:39:56.152Z,11.82
2023-05-14T01:42:23.355Z,11.86
2023-05-14T01:44:50.471Z,11.90
2023-05-14T01:47:17.399Z,11.93
2023-05-14T01:49:44.337Z,11.90
2023-05-14T01:52:12.197Z,11.89
2023-05-14T01:54:39.148Z,11.91
2023-05-14T01:57:06.096Z,11.95
2023-05-14T01:59:33.035Z,11.96
2023-05-14T02:01:59.923Z,11.98
2023-05-14T02:04:27.083Z,12.00
2023-05-14T02:06:54.275Z,11.97
2023-05-14T02:09:24.498Z,11.94
2023-05-14T02:11:51.445Z,11.92
2023-05-14T02:14:18.490Z,11.90
2023-05-14T02:16:45.451Z,11.86
2023-05-14T02:19:12.503Z,11.79
2023-05-14T02:21:39.523Z,11.75
2023-05-14T02:24:06.793Z,11.73
2023-05-14T02:26:33.729Z,11.73
2023-05-14T02:29:00.772Z,11.74
2023-05-14T02:31:27.868Z,11.72
2023-05-14T02:33:54.861Z,11.73
2023-05-14T02:36:21.916Z,11.73
2023-05-14T02:38:48.953Z,11.71
2023-05-14T02:41:15.834Z,11.69
2023-05-14T02:43:42.742Z,11.67
2023-05-14T02:46:09.794Z,11.62
2023-05-14T02:48:36.738Z,11.58
2023-05-14T02:51:04.038Z,11.55
2023-05-14T02:53:31.251Z,11.52
2023-05-14T02:55:58.801Z,11.51
2023-05-14T02:58:28.206Z,11.49
2023-05-14T03:00:56.206Z,11.48
2023-05-14T03:03:23.881Z,11.46
2023-05-14T03:05:52.142Z,11.46
2023-05-14T03:08:19.267Z,11.49
2023-05-14T03:10:46.202Z,11.54
2023-05-14T03:13:14.685Z,11.58
2023-05-14T03:15:42.254Z,11.58
2023-05-14T03:18:09.317Z,11.56
2023-05-14T03:20:36.328Z,11.55
2023-05-14T03:23:03.788Z,11.56
2023-05-14T03:25:30.728Z,11.57
2023-05-14T03:27:59.013Z,11.61
2023-05-14T03:30:26.407Z,11.67
2023-05-14T03:32:53.622Z,11.76
2023-05-14T03:35:20.778Z,11.87
2023-05-14T03:37:47.703Z,11.98
2023-05-14T03:40:14.654Z,12.11
2023-05-14T03:42:43.543Z,12.31
2023-05-14T03:45:10.908Z,12.49
2023-05-14T03:47:38.093Z,12.67
2023-05-14T03:50:07.285Z,12.92
2023-05-14T03:52:34.180Z,13.23
2023-05-14T03:55:02.781Z,13.56
2023-05-14T03:57:29.815Z,13.88
2023-05-14T03:59:56.782Z,14.19
2023-05-14T04:02:23.755Z,14.48
2023-05-14T04:04:50.798Z,14.73
2023-05-14T04:07:20.257Z,14.93
2023-05-14T04:09:47.299Z,15.12
2023-05-14T04:12:14.346Z,15.32
2023-05-14T04:14:41.309Z,15.52
2023-05-14T04:17:08.235Z,15.71
2023-05-14T04:19:35.187Z,15.89
2023-05-14T04:22:03.353Z,16.05
2023-05-14T04:24:30.398Z,16.22
2023-05-14T04:26:57.344Z,16.38
2023-05-14T04:29:24.292Z,16.54
2023-05-14T04:31:51.181Z,16.64
2023-05-14T04:34:18.172Z,16.71
2023-05-14T04:36:45.120Z,16.77
2023-05-14T04:39:12.780Z,16.85
2023-05-14T04:41:39.725Z,16.97
2023-05-14T04:44:07.280Z,17.06
2023-05-14T04:46:34.419Z,17.07
2023-05-14T04:49:01.578Z,17.11
2023-05-14T04:51:28.642Z,17.17
2023-05-14T04:53:55.675Z,17.22
2023-05-14T04:56:22.631Z,17.23
2023-05-14T04:58:49.558Z,17.27
2023-05-14T05:01:16.675Z,17.38
2023-05-14T05:03:43.647Z,17.48
2023-05-14T05:06:10.704Z,17.55
2023-05-14T05:08:37.958Z,17.61
2023-05-14T05:11:05.306Z,17.65
2023-05-14T05:13:32.463Z,17.71
2023-05-14T05:15:59.545Z,17.80
2023-05-14T05:18:26.628Z,17.87
2023-05-14T05:20:53.709Z,17.91
2023-05-14T05:23:20.570Z,17.97
2023-05-14T05:25:48.115Z,18.05
2023-05-14T05:28:15.154Z,18.17
2023-05-14T05:30:42.201Z,18.31
2023-05-14T05:33:09.172Z,18.42
2023-05-14T05:35:36.114Z,18.48
2023-05-14T05:38:03.445Z,18.50
2023-05-14T05:40:30.484Z,18.54
2023-05-14T05:42:57.440Z,18.57
2023-05-14T05:45:24.375Z,18.55
2023-05-14T05:47:51.584Z,18.59
2023-05-14T05:51:44.591Z,18.82
2023-05-14T05:54:11.557Z,19.05
2023-05-14T05:56:38.500Z,19.33
2023-05-14T05:59:05.538Z,19.59
2023-05-14T06:01:32.772Z,19.86
2023-05-14T06:03:59.723Z,20.01
2023-05-14T06:06:26.579Z,20.11
2023-05-14T06:08:53.604Z,20.21
2023-05-14T06:11:21.991Z,20.33
2023-05-14T06:13:49.270Z,20.34
2023-05-14T06:16:16.313Z,20.26
2023-05-14T06:18:43.326Z,20.20
2023-05-14T06:21:10.386Z,20.16
2023-05-14T06:23:37.321Z,20.21
2023-05-14T06:26:04.368Z,20.29
2023-05-14T06:28:31.314Z,20.39
2023-05-14T06:30:58.162Z,20.49
2023-05-14T06:33:31.241Z,20.50
2023-05-14T06:35:59.562Z,20.62
2023-05-14T06:38:26.976Z,20.78
2023-05-14T06:40:53.935Z,20.83
2023-05-14T06:43:21.066Z,20.89
2023-05-14T06:45:52.314Z,20.92
2023-05-14T06:48:19.839Z,20.85
2023-05-14T06:50:47.940Z,20.77
2023-05-14T06:53:15.519Z,20.83
2023-05-14T06:55:42.547Z,20.96
2023-05-14T06:58:09.721Z,21.10
2023-05-14T07:00:36.844Z,21.20
2023-05-14T07:03:04.031Z,21.18
2023-05-14T07:05:31.044Z,21.14
2023-05-14T07:07:57.984Z,21.11
2023-05-14T07:10:25.458Z,21.09
2023-05-14T07:12:52.553Z,21.23
2023-05-14T07:15:19.664Z,21.41
2023-05-14T07:17:46.720Z,21.56
2023-05-14T07:20:13.740Z,21.78
2023-05-14T07:22:40.682Z,21.85
2023-05-14T07:25:08.237Z,21.91
2023-05-14T07:27:35.189Z,21.94
2023-05-14T07:30:02.158Z,22.07
2023-05-14T07:32:29.073Z,22.20
2023-05-14T07:34:56.114Z,22.27
2023-05-14T07:37:24.154Z,22.26
2023-05-14T07:39:51.843Z,22.34
2023-05-14T07:42:31.886Z,22.38
2023-05-14T07:45:02.732Z,22.64
2023-05-14T07:47:29.792Z,22.79
2023-05-14T07:49:57.445Z,22.97
2023-05-14T07:52:24.910Z,23.18
2023-05-14T07:54:52.161Z,23.27
2023-05-14T07:57:19.960Z,23.18
2023-05-14T07:59:48.117Z,23.02
2023-05-14T08:02:17.040Z,23.00
2023-05-14T08:04:44.428Z,23.20
2023-05-14T08:07:11.377Z,23.39
2023-05-14T08:09:38.345Z,23.47
2023-05-14T08:12:06.190Z,23.60
2023-05-14T08:14:33.440Z,23.82
2023-05-14T08:17:00.496Z,24.03
2023-05-14T08:19:27.944Z,24.19
2023-05-14T08:21:54.989Z,24.21
2023-05-14T08:24:21.933Z,24.15
2023-05-14T08:26:48.857Z,24.15
2023-05-14T08:29:16.777Z,24.25
2023-05-14T08:31:44.135Z,24.25
2023-05-14T08:34:11.144Z,24.30
2023-05-14T08:36:39.055Z,24.42
2023-05-14T08:39:07.951Z,24.54
2023-05-14T08:41:35.236Z,24.56
2023-05-14T08:44:15.306Z,24.55
2023-05-14T08:46:42.251Z,24.37
2023-05-14T08:49:22.812Z,24.14
2023-05-14T08:51:50.079Z,24.04
2023-05-14T08:54:19.871Z,24.02
2023-05-14T08:56:46.912Z,24.13
2023-05-14T08:59:13.884Z,24.20
2023-05-14T09:01:44.757Z,24.19
2023-05-14T09:04:11.869Z,24.39
2023-05-14T09:06:38.952Z,24.48
2023-05-14T09:09:06.154Z,24.39
2023-05-14T09:11:33.090Z,24.43
2023-05-14T09:13:59.985Z,24.40
2023-05-14T09:16:27.079Z,24.34
2023-05-14T09:18:54.651Z,24.29
2023-05-14T09:21:21.684Z,24.36
2023-05-14T09:23:49.959Z,24.47
2023-05-14T09:26:17.965Z,24.63
2023-05-14T09:28:44.972Z,24.92
2023-05-14T09:31:12.572Z,25.18
2023-05-14T09:33:39.584Z,25.39
2023-05-14T09:36:07.445Z,25.44
2023-05-14T09:38:34.387Z,25.36
2023-05-14T09:41:01.310Z,25.31
2023-05-14T09:43:28.580Z,25.24
2023-05-14T09:45:56.142Z,25.27
2023-05-14T09:48:23.178Z,25.46
2023-05-14T09:50:51.728Z,25.85
2023-05-14T09:53:18.820Z,26.35
2023-05-14T09:55:45.764Z,26.54
2023-05-14T09:58:14.667Z,26.50
2023-05-14T10:00:45.612Z,26.43
2023-05-14T10:03:15.199Z,26.50
2023-05-14T10:05:43.069Z,26.45
2023-05-14T10:08:14.857Z,26.46
2023-05-14T10:10:41.971Z,26.48
2023-05-14T10:13:13.745Z,26.64
2023-05-14T10:15:43.784Z,26.78
2023-05-14T10:18:12.359Z,26.75
2023-05-14T10:20:41.212Z,26.76
2023-05-14T10:23:08.369Z,26.66
2023-05-14T10:25:35.717Z,26.57
2023-05-14T10:28:02.763Z,26.36
2023-05-14T10:30:29.711Z,26.25
2023-05-14T10:33:10.058Z,26.26
2023-05-14T10:36:05.992Z,26.31
2023-05-14T10:38:36.937Z,26.02
2023-05-14T10:41:18.190Z,25.70
2023-05-14T10:43:45.262Z,25.52
2023-05-14T10:46:13.929Z,25.39
2023-05-14T10:48:44.196Z,25.22
2023-05-14T10:51:12.346Z,25.24
2023-05-14T10:53:41.287Z,25.41
2023-05-14T10:56:11.969Z,25.57
2023-05-14T10:58:43.238Z,25.47
2023-05-14T11:01:12.400Z,25.53
2023-05-14T11:03:46.608Z,25.49
2023-05-14T11:06:15.733Z,25.40
2023-05-14T11:08:43.039Z,25.26
2023-05-14T11:11:10.622Z,25.34
2023-05-14T11:13:37.690Z,25.42
2023-05-14T11:16:18.988Z,25.43
2023-05-14T11:18:54.935Z,25.55
2023-05-14T11:21:22.103Z,25.73
2023-05-14T11:23:49.120Z,25.95
2023-05-14T11:26:16.336Z,26.11
2023-05-14T11:28:43.603Z,26.27
2023-05-14T11:31:10.595Z,26.41
2023-05-14T11:33:37.591Z,26.52
2023-05-14T11:36:05.364Z,26.54
2023-05-14T11:38:32.310Z,26.74
2023-05-14T11:40:59.718Z,26.83
2023-05-14T11:43:29.590Z,26.89
2023-05-14T11:45:57.909Z,27.08
2023-05-14T11:48:24.899Z,27.06
2023-05-14T11:50:53.181Z,27.03
2023-05-14T11:53:29.044Z,26.91
2023-05-14T11:55:57.948Z,26.77
2023-05-14T11:58:25.059Z,26.51
2023-05-14T12:00:52.851Z,26.51
2023-05-14T12:03:26.916Z,26.61
2023-05-14T12:05:58.899Z,26.59
2023-05-14T12:08:30.114Z,26.55
2023-05-14T12:10:58.763Z,26.74
2023-05-14T12:13:32.638Z,26.90
2023-05-14T12:16:02.532Z,26.98
2023-05-14T12:18:31.399Z,26.85
2023-05-14T12:21:03.296Z,26.71
2023-05-14T12:23:30.479Z,26.71
2023-05-14T12:26:06.819Z,26.86
2023-05-14T12:28:36.855Z,27.16
2023-05-14T12:31:05.227Z,27.48
2023-05-14T12:33:32.242Z,27.54
2023-05-14T12:36:19.738Z,27.24
2023-05-14T12:38:49.479Z,27.06
2023-05-14T12:41:18.382Z,26.73
2023-05-14T12:43:45.520Z,26.40
2023-05-14T12:46:12.876Z,25.77
2023-05-14T12:48:39.732Z,25.29
2023-05-14T12:51:07.223Z,24.93
2023-05-14T12:53:35.444Z,24.52
2023-05-14T12:56:02.568Z,24.11
2023-05-14T12:58:29.549Z,23.82
2023-05-14T13:00:56.829Z,23.64
2023-05-14T13:03:24.225Z,23.46
2023-05-14T13:05:52.674Z,23.39
2023-05-14T13:08:21.636Z,23.25
2023-05-14T13:10:48.666Z,22.98
2023-05-14T13:13:16.121Z,22.75
2023-05-14T13:15:43.166Z,22.61
2023-05-14T13:18:10.560Z,22.52
2023-05-14T13:20:37.534Z,22.48
2023-05-14T13:23:04.509Z,22.50
2023-05-14T13:25:31.453Z,22.54
2023-05-14T13:27:58.337Z,22.52
2023-05-14T13:30:25.454Z,22.46
2023-05-14T13:32:52.406Z,22.30
2023-05-14T13:35:19.534Z,22.14
2023-05-14T13:37:47.095Z,22.05
2023-05-14T13:40:13.963Z,22.02
2023-05-14T13:42:41.106Z,22.00
2023-05-14T13:45:08.757Z,21.95
2023-05-14T13:47:36.152Z,21.92
2023-05-14T13:50:03.277Z,21.95
2023-05-14T13:52:30.192Z,22.01
2023-05-14T13:54:57.134Z,22.07
2023-05-14T13:57:24.289Z,22.11
2023-05-14T13:59:51.336Z,22.15
2023-05-14T14:02:18.282Z,22.20
2023-05-14T14:04:45.457Z,22.23
2023-05-14T14:07:12.411Z,22.28
2023-05-14T14:09:39.422Z,22.32
2023-05-14T14:12:07.256Z,22.33
2023-05-14T14:14:34.330Z,22.30
2023-05-14T14:17:01.288Z,22.32
2023-05-14T14:19:28.226Z,22.39
2023-05-14T14:21:55.177Z,22.48
2023-05-14T14:24:22.038Z,22.57
2023-05-14T14:26:49.360Z,22.63
2023-05-14T14:29:16.407Z,22.62
2023-05-14T14:31:43.830Z,22.60
2023-05-14T14:34:11.117Z,22.59
2023-05-14T14:36:38.080Z,22.61
2023-05-14T14:39:05.033Z,22.58
2023-05-14T14:41:31.946Z,22.42
2023-05-14T14:43:58.891Z,22.30
2023-05-14T14:46:26.457Z,22.26
2023-05-14T14:48:53.594Z,22.24
2023-05-14T14:51:20.643Z,22.16
2023-05-14T14:53:48.010Z,22.08
2023-05-14T14:56:15.692Z,22.07
2023-05-14T14:58:42.617Z,22.04
2023-05-14T15:01:09.706Z,22.02
2023-05-14T15:03:36.786Z,21.96
2023-05-14T15:06:04.593Z,21.90
2023-05-14T15:08:31.610Z,21.86
2023-05-14T15:11:00.117Z,21.81
2023-05-14T15:13:28.476Z,21.78
2023-05-14T15:15:55.486Z,21.72
2023-05-14T15:18:22.954Z,21.71
2023-05-14T15:20:50.119Z,21.68
2023-05-14T15:23:17.181Z,21.65
2023-05-14T15:25:44.423Z,21.65
2023-05-14T15:28:11.467Z,21.66
2023-05-14T15:30:38.510Z,21.72
2023-05-14T15:33:07.779Z,21.76
2023-05-14T15:35:34.962Z,21.81
2023-05-14T15:38:01.923Z,21.89
2023-05-14T15:40:28.958Z,21.92
2023-05-14T15:42:55.876Z,21.94
2023-05-14T15:45:22.938Z,21.94
2023-05-14T15:47:50.010Z,21.89
2023-05-14T15:50:17.140Z,21.83
2023-05-14T15:52:44.024Z,21.79
2023-05-14T15:55:11.124Z,21.73
2023-05-14T15:57:38.070Z,21.68
2023-05-14T16:00:11.569Z,21.59
2023-05-14T16:02:39.144Z,21.49
2023-05-14T16:05:07.610Z,21.41
2023-05-14T16:07:34.656Z,21.32
2023-05-14T16:10:01.513Z,21.24
2023-05-14T16:12:28.647Z,21.15
2023-05-14T16:14:57.795Z,21.03
2023-05-14T16:17:24.838Z,20.91
2023-05-14T16:19:53.468Z,20.82
2023-05-14T16:22:22.353Z,20.72
2023-05-14T16:24:49.301Z,20.62
2023-05-14T16:27:18.538Z,20.52
2023-05-14T16:29:45.562Z,20.39
2023-05-14T16:32:12.739Z,20.26
2023-05-14T16:34:39.947Z,20.13
2023-05-14T16:37:06.886Z,20.00
2023-05-14T16:39:33.828Z,19.88
2023-05-14T16:42:01.184Z,19.75
2023-05-14T16:44:28.150Z,19.62
2023-05-14T16:46:55.076Z,19.49
2023-05-14T16:49:23.043Z,19.34
2023-05-14T16:51:50.000Z,19.18
2023-05-14T16:54:16.927Z,19.05
2023-05-14T16:56:48.374Z,18.92
2023-05-14T16:59:15.988Z,18.80
2023-05-14T17:01:43.739Z,18.67
2023-05-14T17:04:10.824Z,18.54
2023-05-14T17:06:37.739Z,18.39
2023-05-14T17:09:05.313Z,18.21
2023-05-14T17:11:32.558Z,18.02
2023-05-14T17:13:59.556Z,17.82
2023-05-14T17:16:27.238Z,17.63
2023-05-14T17:18:54.299Z,17.43
2023-05-14T17:21:21.606Z,17.23
2023-05-14T17:23:48.546Z,17.00
2023-05-14T17:26:15.591Z,16.75
2023-05-14T17:28:42.538Z,16.52
2023-05-14T17:31:09.532Z,16.31
2023-05-14T17:33:36.653Z,16.11
2023-05-14T17:36:04.183Z,15.91
2023-05-14T17:38:31.335Z,15.73
2023-05-14T17:40:59.545Z,15.58
2023-05-14T17:43:26.549Z,15.43
2023-05-14T17:45:54.758Z,15.28
2023-05-14T17:48:23.237Z,15.13
2023-05-14T17:50:51.752Z,14.98
2023-05-14T17:53:19.055Z,14.83
2023-05-14T17:55:46.064Z,14.69
2023-05-14T17:58:14.684Z,14.56
2023-05-14T18:00:41.903Z,14.43
2023-05-14T18:03:09.303Z,14.30
2023-05-14T18:05:36.439Z,14.19
2023-05-14T18:09:52.752Z,14.02
2023-05-14T18:12:19.703Z,13.90
2023-05-14T18:14:46.647Z,13.81
2023-05-14T18:17:13.788Z,13.71
2023-05-14T18:19:43.610Z,13.61
2023-05-14T18:22:10.609Z,13.52
2023-05-14T18:24:37.595Z,13.47
2023-05-14T18:27:04.848Z,13.43
2023-05-14T18:29:31.790Z,13.38
2023-05-14T18:31:58.730Z,13.30
2023-05-14T18:34:25.692Z,13.23
2023-05-14T18:36:52.717Z,13.16
2023-05-14T18:39:19.699Z,13.11
2023-05-14T18:41:46.557Z,13.08
2023-05-14T18:44:13.762Z,13.05
2023-05-14T18:46:40.724Z,13.02
2023-05-14T18:49:07.622Z,12.99
2023-05-14T18:51:34.602Z,12.98
2023-05-14T18:54:01.553Z,12.96
2023-05-14T18:56:28.581Z,12.96
2023-05-14T18:58:55.528Z,12.97
2023-05-14T19:01:25.385Z,12.99
2023-05-14T19:03:53.246Z,13.04
2023-05-14T19:06:21.068Z,13.08
2023-05-14T19:08:48.020Z,13.17
2023-05-14T19:11:16.493Z,13.24
2023-05-14T19:13:46.740Z,13.29
2023-05-14T19:16:13.680Z,13.34
2023-05-14T19:18:40.841Z,13.38
2023-05-14T19:21:08.186Z,13.42
2023-05-14T19:23:35.215Z,13.46
2023-05-14T19:26:04.000Z,13.49
2023-05-14T19:28:31.036Z,13.52
2023-05-14T19:30:57.937Z,13.54
2023-05-14T19:33:26.258Z,13.54
2023-05-14T19:35:53.197Z,13.54
2023-05-14T19:38:20.963Z,13.56
2023-05-14T19:40:47.919Z,13.59
2023-05-14T19:43:15.171Z,13.69
2023-05-14T19:45:42.916Z,13.78
2023-05-14T19:48:10.511Z,13.88
2023-05-14T19:50:37.837Z,13.98
2023-05-14T19:53:04.795Z,14.05
2023-05-14T19:55:31.725Z,14.06
2023-05-14T19:57:58.668Z,14.05
2023-05-14T20:00:26.880Z,14.00
2023-05-14T20:02:54.857Z,13.94
2023-05-14T20:05:22.167Z,13.89
2023-05-14T20:07:49.408Z,13.83
2023-05-14T20:10:16.463Z,13.75
2023-05-14T20:12:43.508Z,13.68
2023-05-14T20:15:11.083Z,13.63
2023-05-14T20:17:38.987Z,13.54
2023-05-14T20:20:07.115Z,13.45
2023-05-14T20:22:34.053Z,13.35
2023-05-14T20:25:00.996Z,13.23
2023-05-14T20:27:27.940Z,13.11
2023-05-14T20:29:54.882Z,13.01
2023-05-14T20:32:25.132Z,12.91
2023-05-14T20:34:52.358Z,12.80
2023-05-14T20:37:22.272Z,12.69
2023-05-14T20:39:49.261Z,12.61
2023-05-14T20:42:16.263Z,12.53
2023-05-14T20:44:43.160Z,12.44
2023-05-14T20:47:09.998Z,12.36
2023-05-14T20:49:36.991Z,12.26
2023-05-14T20:52:04.484Z,12.16
2023-05-14T20:54:31.401Z,12.05
2023-05-14T20:56:58.248Z,11.97
2023-05-14T20:59:25.179Z,11.88
2023-05-14T21:01:52.202Z,11.79
2023-05-14T21:04:19.492Z,11.71
2023-05-14T21:06:46.626Z,11.66
2023-05-14T21:09:13.570Z,11.61
2023-05-14T21:11:40.510Z,11.55
2023-05-14T21:14:07.462Z,11.49
2023-05-14T21:16:34.555Z,11.44
2023-05-14T21:19:01.603Z,11.40
2023-05-14T21:21:29.110Z,11.33
2023-05-14T21:23:56.052Z,11.28
2023-05-14T21:26:23.715Z,11.24
2023-05-14T21:28:50.665Z,11.19
2023-05-14T21:31:17.649Z,11.15
2023-05-14T21:33:44.648Z,11.12
2023-05-14T21:36:12.029Z,11.09
2023-05-14T21:38:39.048Z,11.07
2023-05-14T21:41:06.098Z,11.04
2023-05-14T21:43:34.170Z,11.02
2023-05-14T21:46:01.121Z,10.98
2023-05-14T21:48:28.527Z,10.95
2023-05-14T21:50:56.036Z,10.89
2023-05-14T21:53:23.074Z,10.84
2023-05-14T21:55:50.113Z,10.81
2023-05-14T21:58:16.998Z,10.78
2023-05-14T22:00:44.012Z,10.74
2023-05-14T22:03:11.596Z,10.73
2023-05-14T22:05:38.946Z,10.70
2023-05-14T22:08:06.272Z,10.67
2023-05-14T22:10:34.748Z,10.63
2023-05-14T22:13:01.696Z,10.60
2023-05-14T22:15:28.637Z,10.56
2023-05-14T22:17:56.103Z,10.53
2023-05-14T22:20:23.152Z,10.51
2023-05-14T22:22:50.503Z,10.49
2023-05-14T22:25:17.644Z,10.43
2023-05-14T22:27:44.584Z,10.37
2023-05-14T22:30:12.048Z,10.31
2023-05-14T22:32:39.135Z,10.25
2023-05-14T22:35:06.244Z,10.19
2023-05-14T22:37:33.185Z,10.12
2023-05-14T22:40:02.279Z,10.06
2023-05-14T22:42:29.178Z,10.01
2023-05-14T22:44:56.066Z,9.97
2023-05-14T22:47:23.037Z,9.94
2023-05-14T22:49:50.057Z,9.93
2023-05-14T22:52:18.948Z,9.92
2023-05-14T22:54:46.814Z,9.91
2023-05-14T22:57:13.756Z,9.87
2023-05-14T22:59:40.652Z,9.85
2023-05-14T23:02:07.569Z,9.87
2023-05-14T23:04:35.456Z,9.88
2023-05-14T23:07:02.463Z,9.86
2023-05-14T23:09:29.613Z,9.83
2023-05-14T23:11:56.495Z,9.82
2023-05-14T23:14:23.496Z,9.77
2023-05-14T23:16:50.454Z,9.73
2023-05-14T23:19:17.653Z,9.70
2023-05-14T23:21:44.662Z,9.67
2023-05-14T23:24:11.683Z,9.64
2023-05-14T23:26:38.825Z,9.62
2023-05-14T23:29:06.186Z,9.58
2023-05-14T23:31:33.346Z,9.55
2023-05-14T23:34:00.479Z,9.51
2023-05-14T23:36:27.428Z,9.46
2023-05-14T23:38:54.377Z,9.44
2023-05-14T23:41:21.927Z,9.51
2023-05-14T23:43:49.187Z,9.56
2023-05-14T23:46:16.358Z,9.59
2023-05-14T23:48:43.373Z,9.59
2023-05-14T23:51:10.724Z,9.58
2023-05-14T23:53:38.080Z,9.55
2023-05-14T23:56:05.229Z,9.51
2023-05-14T23:58:33.202Z,9.47
